createdAt,value
2022-11-01T00:01:40.276Z,4.27
2022-11-01T00:04:08.803Z,7.80
2022-11-01T00:06:36.997Z,5.80
2022-11-01T00:09:05.059Z,4.73
2022-11-01T00:11:32.351Z,4.23
2022-11-01T00:13:59.067Z,4.97
2022-11-01T00:16:26.765Z,4.53
2022-11-01T00:18:53.495Z,4.70
2022-11-01T00:21:20.398Z,4.60
2022-11-01T00:23:47.781Z,4.27
2022-11-01T00:26:18.048Z,4.70
2022-11-01T00:28:45.611Z,4.70
2022-11-01T00:31:13.528Z,4.13
2022-11-01T00:33:40.420Z,4.10
2022-11-01T00:36:08.521Z,4.10
2022-11-01T00:38:36.148Z,4.67
2022-11-01T00:41:04.199Z,4.13
2022-11-01T00:43:35.575Z,4.23
2022-11-01T00:46:02.669Z,3.90
2022-11-01T00:48:29.748Z,5.13
2022-11-01T00:50:57.084Z,3.53
2022-11-01T00:53:23.791Z,4.00
2022-11-01T00:55:50.696Z,4.33
2022-11-01T00:58:17.595Z,3.53
2022-11-01T01:00:44.395Z,3.77
2022-11-01T01:03:11.916Z,3.63
2022-11-01T01:05:38.565Z,3.03
2022-11-01T01:08:05.456Z,3.27
2022-11-01T01:10:32.135Z,3.07
2022-11-01T01:12:59.108Z,3.50
2022-11-01T01:15:26.967Z,2.83
2022-11-01T01:17:53.655Z,2.70
2022-11-01T01:20:21.007Z,2.90
2022-11-01T01:22:48.452Z,2.67
2022-11-01T01:25:15.251Z,2.90
2022-11-01T01:27:42.198Z,2.87
2022-11-01T01:30:09.651Z,2.50
2022-11-01T01:32:36.626Z,2.50
2022-11-01T01:35:03.746Z,2.40
2022-11-01T01:37:30.450Z,2.27
2022-11-01T01:39:57.498Z,2.60
2022-11-01T01:42:29.862Z,2.73
2022-11-01T01:44:57.397Z,2.67
2022-11-01T01:47:27.381Z,2.63
2022-11-01T01:50:05.526Z,2.87
2022-11-01T01:52:39.025Z,2.40
2022-11-01T01:55:08.726Z,2.37
2022-11-01T01:57:36.795Z,2.77
2022-11-01T02:00:05.507Z,2.60
2022-11-01T02:02:38.834Z,2.53
2022-11-01T02:05:33.860Z,3.00
2022-11-01T02:08:01.182Z,2.53
2022-11-01T02:10:30.288Z,2.17
2022-11-01T02:12:58.227Z,2.50
2022-11-01T02:15:34.036Z,2.87
2022-11-01T02:18:21.078Z,2.70
2022-11-01T02:21:16.144Z,2.20
2022-11-01T02:24:20.244Z,2.40
2022-11-01T02:27:00.348Z,2.33
2022-11-01T02:30:04.041Z,2.90
2022-11-01T02:33:03.121Z,2.60
2022-11-01T02:36:16.053Z,2.50
2022-11-01T02:38:50.520Z,2.57
2022-11-01T02:41:43.509Z,2.90
2022-11-01T02:44:15.842Z,4.00
2022-11-01T02:47:03.449Z,2.90
2022-11-01T02:49:41.329Z,3.40
2022-11-01T02:52:31.048Z,3.63
2022-11-01T02:55:01.078Z,2.33
2022-11-01T02:57:39.847Z,2.40
2022-11-01T03:00:46.076Z,2.40
2022-11-01T03:03:46.892Z,2.40
2022-11-01T03:06:24.968Z,2.30
2022-11-01T03:09:00.114Z,3.00
2022-11-01T03:11:37.379Z,2.37
2022-11-01T03:14:10.193Z,3.30
2022-11-01T03:16:52.893Z,2.50
2022-11-01T03:19:39.017Z,1.80
2022-11-01T03:22:10.028Z,2.43
2022-11-01T03:24:59.737Z,2.67
2022-11-01T03:27:39.074Z,2.23
2022-11-01T03:30:09.788Z,2.37
2022-11-01T03:32:49.745Z,2.47
2022-11-01T03:35:21.296Z,3.20
2022-11-01T03:37:50.980Z,2.30
2022-11-01T03:40:18.903Z,2.10
2022-11-01T03:42:49.243Z,2.87
2022-11-01T03:47:51.137Z,2.10
2022-11-01T03:50:19.642Z,2.80
2022-11-01T03:52:47.430Z,2.20
2022-11-01T03:55:18.244Z,2.30
2022-11-01T03:57:47.124Z,2.60
2022-11-01T04:00:22.689Z,2.27
2022-11-01T04:02:50.593Z,2.77
2022-11-01T04:05:18.613Z,2.23
2022-11-01T04:07:45.370Z,2.30
2022-11-01T04:10:14.189Z,2.43
2022-11-01T04:12:44.131Z,2.20
2022-11-01T04:15:29.830Z,2.60
2022-11-01T04:21:14.180Z,2.20
2022-11-01T04:23:42.628Z,2.10
2022-11-01T04:26:13.960Z,2.20
2022-11-01T04:28:40.722Z,1.93
2022-11-01T04:31:07.964Z,2.13
2022-11-01T04:33:34.645Z,2.50
2022-11-01T04:36:06.080Z,2.80
2022-11-01T04:38:32.771Z,2.07
2022-11-01T04:40:59.547Z,3.10
2022-11-01T04:43:26.269Z,2.30
2022-11-01T04:45:58.067Z,1.73
2022-11-01T04:48:26.224Z,1.90
2022-11-01T04:50:53.167Z,1.20
2022-11-01T04:53:19.897Z,1.80
2022-11-01T04:55:46.565Z,1.60
2022-11-01T04:58:14.758Z,1.30
2022-11-01T05:00:44.233Z,1.83
2022-11-01T05:03:11.036Z,1.83
2022-11-01T05:05:39.184Z,1.70
2022-11-01T05:08:11.217Z,1.97
2022-11-01T05:10:40.956Z,1.50
2022-11-01T05:13:09.192Z,1.83
2022-11-01T05:15:40.040Z,1.73
2022-11-01T05:18:14.745Z,1.50
2022-11-01T05:20:41.451Z,1.70
2022-11-01T05:23:09.375Z,1.50
2022-11-01T05:25:38.143Z,2.00
2022-11-01T05:28:08.433Z,1.67
2022-11-01T05:30:37.139Z,1.43
2022-11-01T05:33:06.097Z,2.03
2022-11-01T05:35:34.100Z,1.73
2022-11-01T05:38:02.963Z,1.57
2022-11-01T05:40:30.949Z,2.03
2022-11-01T05:42:59.755Z,1.80
2022-11-01T05:45:26.846Z,1.70
2022-11-01T05:47:53.584Z,1.50
2022-11-01T05:50:20.525Z,1.90
2022-11-01T05:52:47.258Z,1.53
2022-11-01T05:55:15.032Z,1.83
2022-11-01T05:57:41.758Z,2.20
2022-11-01T06:00:09.069Z,2.00
2022-11-01T06:02:38.971Z,1.70
2022-11-01T06:05:06.024Z,1.73
2022-11-01T06:07:35.744Z,2.30
2022-11-01T06:10:02.783Z,2.10
2022-11-01T06:12:29.994Z,2.97
2022-11-01T06:14:56.669Z,2.53
2022-11-01T06:17:23.601Z,2.20
2022-11-01T06:19:50.353Z,2.43
2022-11-01T06:22:17.009Z,2.00
2022-11-01T06:24:43.937Z,4.27
2022-11-01T06:27:12.723Z,3.00
2022-11-01T06:29:40.560Z,1.83
2022-11-01T06:32:07.285Z,2.20
2022-11-01T06:34:34.261Z,1.83
2022-11-01T06:37:01.261Z,2.03
2022-11-01T06:39:29.004Z,2.30
2022-11-01T06:41:55.681Z,2.17
2022-11-01T06:44:22.835Z,5.40
2022-11-01T06:46:49.670Z,3.17
2022-11-01T06:49:19.028Z,2.80
2022-11-01T06:51:46.566Z,2.40
2022-11-01T06:54:14.195Z,2.70
2022-11-01T06:56:41.028Z,2.03
2022-11-01T06:59:08.921Z,2.13
2022-11-01T07:01:35.987Z,2.10
2022-11-01T07:04:02.878Z,5.03
2022-11-01T07:06:30.974Z,7.13
2022-11-01T07:09:01.028Z,3.30
2022-11-01T07:11:31.441Z,14.00
2022-11-01T07:13:59.915Z,6.60
2022-11-01T07:16:26.964Z,2.70
2022-11-01T07:18:54.212Z,2.53
2022-11-01T07:21:21.159Z,4.23
2022-11-01T07:23:47.878Z,4.33
2022-11-01T07:26:15.554Z,5.60
2022-11-01T07:28:42.323Z,5.37
2022-11-01T07:31:09.339Z,3.17
2022-11-01T07:33:36.294Z,2.90
2022-11-01T07:36:04.001Z,3.33
2022-11-01T07:38:31.736Z,8.47
2022-11-01T07:40:58.708Z,14.73
2022-11-01T07:43:27.550Z,5.23
2022-11-01T07:45:59.805Z,23.90
2022-11-01T07:48:26.728Z,19.10
2022-11-01T07:50:57.294Z,23.47
2022-11-01T07:53:24.896Z,15.53
2022-11-01T07:55:52.101Z,2.90
2022-11-01T07:58:18.884Z,2.57
2022-11-01T08:00:46.727Z,4.60
2022-11-01T08:03:16.350Z,2.30
2022-11-01T08:05:44.488Z,2.23
2022-11-01T08:08:12.201Z,2.17
2022-11-01T08:10:39.742Z,1.90
2022-11-01T08:13:14.943Z,1.60
2022-11-01T08:15:41.908Z,1.80
2022-11-01T08:18:08.714Z,1.80
2022-11-01T08:20:35.772Z,1.80
2022-11-01T08:23:03.110Z,3.57
2022-11-01T08:25:31.293Z,2.00
2022-11-01T08:28:06.917Z,1.70
2022-11-01T08:30:34.666Z,2.10
2022-11-01T08:33:03.525Z,1.88
2022-11-01T08:35:32.620Z,1.73
2022-11-01T08:38:00.242Z,12.77
2022-11-01T08:40:31.506Z,16.50
2022-11-01T08:42:58.639Z,3.08
2022-11-01T08:45:26.572Z,3.38
2022-11-01T08:48:01.732Z,2.10
2022-11-01T08:50:29.692Z,2.05
2022-11-01T08:52:57.029Z,2.17
2022-11-01T08:55:23.843Z,2.75
2022-11-01T08:57:50.632Z,2.40
2022-11-01T09:00:18.223Z,2.35
2022-11-01T09:02:45.260Z,2.20
2022-11-01T09:05:12.087Z,2.35
2022-11-01T09:07:39.661Z,2.38
2022-11-01T09:10:07.362Z,2.22
2022-11-01T09:12:34.210Z,2.38
2022-11-01T09:15:01.894Z,2.65
2022-11-01T09:17:28.588Z,2.17
2022-11-01T09:19:55.462Z,3.22
2022-11-01T09:22:22.600Z,2.83
2022-11-01T09:24:49.372Z,2.45
2022-11-01T09:27:17.012Z,2.40
2022-11-01T09:29:46.507Z,2.42
2022-11-01T09:32:16.895Z,2.53
2022-11-01T09:34:44.165Z,2.75
2022-11-01T09:37:11.156Z,2.67
2022-11-01T09:39:37.837Z,1.83
2022-11-01T09:42:28.641Z,2.58
2022-11-01T09:44:59.147Z,2.50
2022-11-01T09:47:28.666Z,2.63
2022-11-01T09:50:06.592Z,2.15
2022-11-01T09:52:33.496Z,2.28
2022-11-01T09:55:01.068Z,2.72
2022-11-01T09:57:43.122Z,3.15
2022-11-01T10:00:13.809Z,2.95
2022-11-01T10:03:06.624Z,2.72
2022-11-01T10:05:52.252Z,2.38
2022-11-01T10:08:35.972Z,2.17
2022-11-01T10:11:21.195Z,2.83
2022-11-01T10:14:18.594Z,2.45
2022-11-01T10:16:59.693Z,2.25
2022-11-01T10:19:33.205Z,2.45
2022-11-01T10:22:06.398Z,2.60
2022-11-01T10:24:48.069Z,2.47
2022-11-01T10:27:18.488Z,2.30
2022-11-01T10:29:48.439Z,2.42
2022-11-01T10:32:31.424Z,3.15
2022-11-01T10:35:03.304Z,2.40
2022-11-01T10:38:11.241Z,2.58
2022-11-01T10:40:51.356Z,2.10
2022-11-01T10:43:22.023Z,2.67
2022-11-01T10:45:51.609Z,3.25
2022-11-01T10:48:47.714Z,2.58
2022-11-01T10:51:20.996Z,2.50
2022-11-01T10:53:57.401Z,3.13
2022-11-01T10:56:37.309Z,2.85
2022-11-01T10:59:10.744Z,2.30
2022-11-01T11:01:44.194Z,3.25
2022-11-01T11:04:17.577Z,3.30
2022-11-01T11:06:44.545Z,2.83
2022-11-01T11:09:34.615Z,2.33
2022-11-01T11:12:09.748Z,2.83
2022-11-01T11:14:37.654Z,2.35
2022-11-01T11:17:14.365Z,2.60
2022-11-01T11:19:43.248Z,2.60
2022-11-01T11:22:11.097Z,2.05
2022-11-01T11:24:40.397Z,2.10
2022-11-01T11:27:26.115Z,2.67
2022-11-01T11:29:54.415Z,2.28
2022-11-01T11:32:25.505Z,2.20
2022-11-01T11:34:59.664Z,1.92
2022-11-01T11:37:30.309Z,2.42
2022-11-01T11:40:19.260Z,2.40
2022-11-01T11:42:50.150Z,2.15
2022-11-01T11:45:22.513Z,2.42
2022-11-01T11:47:49.955Z,2.08
2022-11-01T11:50:19.572Z,2.30
2022-11-01T11:52:49.568Z,1.95
2022-11-01T11:55:28.199Z,2.22
2022-11-01T11:57:56.365Z,2.60
2022-11-01T12:00:27.441Z,2.10
2022-11-01T12:02:54.279Z,3.70
2022-11-01T12:05:23.735Z,2.08
2022-11-01T12:07:53.268Z,1.60
2022-11-01T12:10:36.313Z,1.83
2022-11-01T12:13:36.895Z,1.80
2022-11-01T12:16:20.146Z,2.10
2022-11-01T12:18:50.929Z,2.33
2022-11-01T12:21:22.628Z,1.80
2022-11-01T12:23:53.725Z,1.55
2022-11-01T12:26:23.512Z,1.33
2022-11-01T12:29:02.208Z,1.60
2022-11-01T12:31:31.760Z,1.00
2022-11-01T12:34:13.198Z,1.73
2022-11-01T12:36:50.858Z,0.88
2022-11-01T12:39:55.710Z,1.27
2022-11-01T12:42:28.801Z,0.90
2022-11-01T12:45:10.170Z,0.82
2022-11-01T12:47:50.594Z,0.85
2022-11-01T12:50:22.193Z,1.10
2022-11-01T12:52:55.248Z,0.80
2022-11-01T12:55:37.399Z,1.10
2022-11-01T12:58:05.496Z,1.20
2022-11-01T13:00:49.127Z,1.10
2022-11-01T13:03:48.900Z,0.98
2022-11-01T13:06:35.807Z,0.80
2022-11-01T13:09:05.821Z,1.05
2022-11-01T13:12:12.565Z,1.15
2022-11-01T13:15:04.071Z,1.00
2022-11-01T13:17:44.889Z,1.20
2022-11-01T13:20:33.010Z,1.08
2022-11-01T13:23:16.939Z,1.33
2022-11-01T13:26:12.447Z,1.15
2022-11-01T13:28:39.156Z,1.20
2022-11-01T13:31:16.584Z,1.48
2022-11-01T13:34:21.582Z,1.00
2022-11-01T13:37:04.731Z,1.38
2022-11-01T13:40:09.917Z,1.35
2022-11-01T13:42:42.338Z,1.08
2022-11-01T13:45:22.399Z,1.30
2022-11-01T13:47:55.546Z,1.40
2022-11-01T13:50:40.568Z,1.30
2022-11-01T13:53:31.185Z,1.10
2022-11-01T13:56:03.551Z,1.40
2022-11-01T13:58:33.577Z,1.83
2022-11-01T14:01:37.304Z,1.50
2022-11-01T14:04:06.912Z,1.20
2022-11-01T14:06:37.904Z,1.50
2022-11-01T14:09:30.070Z,1.60
2022-11-01T14:11:58.672Z,1.30
2022-11-01T14:14:31.576Z,1.70
2022-11-01T14:17:16.562Z,1.33
2022-11-01T14:19:45.026Z,1.58
2022-11-01T14:22:33.785Z,1.17
2022-11-01T14:25:03.745Z,1.42
2022-11-01T14:27:37.232Z,1.30
2022-11-01T14:30:24.503Z,1.58
2022-11-01T14:32:58.217Z,1.63
2022-11-01T14:35:31.098Z,1.60
2022-11-01T14:38:05.522Z,2.08
2022-11-01T14:40:54.681Z,1.42
2022-11-01T14:43:35.344Z,1.80
2022-11-01T14:46:06.433Z,2.13
2022-11-01T14:51:27.207Z,1.98
2022-11-01T14:54:06.694Z,1.63
2022-11-01T14:56:40.924Z,1.58
2022-11-01T15:02:36.993Z,2.20
2022-11-01T15:05:05.365Z,1.67
2022-11-01T15:07:40.505Z,2.30
2022-11-01T15:10:14.389Z,1.70
2022-11-01T15:12:54.885Z,1.65
2022-11-01T15:15:24.743Z,2.03
2022-11-01T15:17:59.177Z,1.55
2022-11-01T15:20:31.947Z,1.40
2022-11-01T15:22:59.696Z,1.63
2022-11-01T15:25:26.789Z,1.92
2022-11-01T15:27:56.217Z,1.63
2022-11-01T15:30:22.889Z,2.88
2022-11-01T15:33:21.046Z,1.70
2022-11-01T15:35:59.588Z,1.70
2022-11-01T15:38:27.649Z,1.90
2022-11-01T15:40:55.226Z,1.77
2022-11-01T15:43:27.421Z,2.55
2022-11-01T15:46:00.864Z,1.52
2022-11-01T15:48:32.592Z,1.90
2022-11-01T15:51:08.992Z,2.42
2022-11-01T15:53:38.759Z,1.83
2022-11-01T15:56:19.928Z,1.75
2022-11-01T15:58:57.533Z,2.00
2022-11-01T16:01:25.222Z,1.58
2022-11-01T16:04:06.282Z,2.30
2022-11-01T16:06:41.007Z,3.33
2022-11-01T16:09:29.552Z,1.80
2022-11-01T16:11:59.442Z,2.38
2022-11-01T16:14:37.246Z,1.90
2022-11-01T16:17:26.832Z,2.05
2022-11-01T16:19:53.856Z,1.92
2022-11-01T16:22:36.712Z,2.08
2022-11-01T16:25:11.960Z,2.00
2022-11-01T16:27:54.824Z,2.30
2022-11-01T16:30:47.256Z,1.75
2022-11-01T16:33:30.927Z,1.77
2022-11-01T16:36:20.723Z,1.75
2022-11-01T16:38:52.658Z,2.10
2022-11-01T16:41:45.648Z,1.75
2022-11-01T16:44:16.066Z,2.60
2022-11-01T16:46:42.947Z,1.95
2022-11-01T16:49:27.228Z,2.15
2022-11-01T16:51:56.455Z,2.15
2022-11-01T16:54:24.808Z,2.00
2022-11-01T16:56:55.075Z,2.17
2022-11-01T16:59:34.290Z,3.05
2022-11-01T17:02:11.497Z,2.38
2022-11-01T17:04:39.780Z,2.63
2022-11-01T17:07:07.026Z,2.05
2022-11-01T17:09:35.844Z,2.35
2022-11-01T17:12:02.588Z,2.17
2022-11-01T17:14:29.458Z,2.47
2022-11-01T17:16:56.516Z,2.42
2022-11-01T17:19:30.150Z,2.33
2022-11-01T17:22:01.239Z,2.90
2022-11-01T17:24:28.407Z,2.47
2022-11-01T17:26:59.207Z,2.63
2022-11-01T17:29:26.247Z,3.53
2022-11-01T17:31:53.066Z,2.33
2022-11-01T17:34:21.084Z,2.38
2022-11-01T17:36:50.503Z,2.70
2022-11-01T17:39:17.870Z,2.20
2022-11-01T17:41:44.659Z,2.58
2022-11-01T17:44:12.309Z,3.60
2022-11-01T17:46:40.081Z,5.35
2022-11-01T17:49:07.534Z,8.25
2022-11-01T17:51:34.502Z,6.90
2022-11-01T17:54:02.300Z,3.25
2022-11-01T17:56:29.499Z,3.00
2022-11-01T17:58:56.406Z,2.85
2022-11-01T18:01:23.373Z,2.72
2022-11-01T18:03:51.457Z,2.58
2022-11-01T18:06:18.320Z,3.97
2022-11-01T18:08:51.110Z,4.07
2022-11-01T18:11:42.378Z,16.63
2022-11-01T18:14:19.718Z,4.22
2022-11-01T18:16:49.543Z,4.85
2022-11-01T18:19:42.607Z,3.10
2022-11-01T18:22:21.381Z,2.67
2022-11-01T18:25:12.054Z,2.95
2022-11-01T18:27:38.957Z,2.87
2022-11-01T18:30:14.585Z,3.05
2022-11-01T18:32:56.475Z,3.58
2022-11-01T18:35:46.956Z,2.72
2022-11-01T18:38:17.882Z,3.05
2022-11-01T18:40:56.857Z,3.00
2022-11-01T18:43:23.971Z,3.42
2022-11-01T18:46:22.913Z,5.15
2022-11-01T18:48:38.624Z,4.30
2022-11-01T18:51:31.488Z,3.35
2022-11-01T18:54:11.284Z,2.90
2022-11-01T18:56:46.270Z,3.43
2022-11-01T18:59:16.066Z,2.70
2022-11-01T19:01:44.025Z,2.13
2022-11-01T19:04:24.423Z,4.47
2022-11-01T19:06:57.042Z,4.33
2022-11-01T19:09:28.555Z,4.20
2022-11-01T19:12:01.276Z,4.13
2022-11-01T19:14:31.098Z,4.95
2022-11-01T19:16:58.575Z,5.10
2022-11-01T19:19:25.400Z,5.30
2022-11-01T19:21:59.204Z,4.90
2022-11-01T19:24:38.313Z,4.93
2022-11-01T19:27:15.225Z,4.83
2022-11-01T19:29:41.980Z,5.50
2022-11-01T19:32:15.247Z,4.20
2022-11-01T19:34:42.859Z,4.50
2022-11-01T19:37:22.401Z,4.90
2022-11-01T19:39:49.268Z,4.87
2022-11-01T19:42:23.560Z,5.40
2022-11-01T19:45:17.184Z,8.57
2022-11-01T19:47:47.285Z,6.22
2022-11-01T19:50:24.069Z,7.30
2022-11-01T19:52:53.581Z,10.93
2022-11-01T19:55:46.434Z,6.45
2022-11-01T19:58:25.281Z,6.07
2022-11-01T20:00:58.197Z,5.37
2022-11-01T20:03:43.378Z,5.60
2022-11-01T20:06:16.004Z,4.90
2022-11-01T20:08:45.586Z,5.20
2022-11-01T20:11:13.270Z,4.70
2022-11-01T20:13:40.046Z,4.83
2022-11-01T20:16:07.797Z,4.40
2022-11-01T20:18:34.814Z,5.30
2022-11-01T20:21:05.811Z,4.13
2022-11-01T20:23:33.966Z,5.40
2022-11-01T20:26:01.782Z,4.67
2022-11-01T20:28:28.668Z,4.60
2022-11-01T20:30:56.205Z,4.63
2022-11-01T20:33:24.659Z,4.57
2022-11-01T20:35:53.777Z,4.97
2022-11-01T20:40:52.785Z,4.17
2022-11-01T20:43:19.739Z,4.90
2022-11-01T20:45:46.864Z,4.13
2022-11-01T20:48:13.938Z,4.83
2022-11-01T20:50:41.539Z,5.03
2022-11-01T20:53:09.869Z,5.17
2022-11-01T20:55:36.809Z,4.93
2022-11-01T20:58:04.881Z,3.80
2022-11-01T21:00:32.285Z,4.20
2022-11-01T21:03:02.344Z,4.17
2022-11-01T21:05:31.372Z,4.70
2022-11-01T21:08:25.632Z,3.97
2022-11-01T21:11:01.110Z,4.10
2022-11-01T21:13:31.992Z,4.00
2022-11-01T21:16:00.396Z,3.77
2022-11-01T21:18:33.778Z,3.30
2022-11-01T21:21:15.425Z,3.17
2022-11-01T21:23:44.498Z,3.23
2022-11-01T21:26:17.532Z,2.87
2022-11-01T21:28:58.024Z,3.33
2022-11-01T21:31:31.325Z,3.10
2022-11-01T21:34:02.231Z,2.80
2022-11-01T21:36:34.527Z,2.80
2022-11-01T21:39:09.879Z,2.87
2022-11-01T21:41:44.768Z,2.40
2022-11-01T21:44:30.073Z,2.70
2022-11-01T21:47:13.205Z,3.53
2022-11-01T21:49:40.365Z,3.03
2022-11-01T21:54:40.579Z,3.87
2022-11-01T21:57:09.995Z,2.60
2022-11-01T21:59:37.360Z,2.17
2022-11-01T22:02:06.089Z,1.90
2022-11-01T22:04:33.440Z,3.13
2022-11-01T22:07:02.659Z,3.70
2022-11-01T22:09:30.596Z,2.30
2022-11-01T22:11:57.671Z,2.23
2022-11-01T22:14:25.704Z,2.47
2022-11-01T22:16:53.952Z,2.57
2022-11-01T22:19:21.517Z,2.63
2022-11-01T22:21:48.239Z,2.60
2022-11-01T22:24:15.024Z,2.40
2022-11-01T22:26:41.832Z,2.67
2022-11-01T22:29:09.283Z,3.13
2022-11-01T22:31:36.097Z,3.27
2022-11-01T22:34:04.084Z,1.77
2022-11-01T22:36:34.708Z,1.90
2022-11-01T22:39:06.685Z,1.60
2022-11-01T22:41:34.892Z,2.43
2022-11-01T22:44:04.820Z,2.53
2022-11-01T22:46:41.733Z,2.17
2022-11-01T22:49:30.645Z,2.73
2022-11-01T22:52:04.480Z,2.43
2022-11-01T22:54:42.948Z,2.40
2022-11-01T22:57:16.832Z,2.53
2022-11-01T22:59:51.295Z,2.47
2022-11-01T23:02:27.194Z,3.03
2022-11-01T23:05:06.310Z,2.40
2022-11-01T23:07:34.931Z,2.47
2022-11-01T23:10:05.475Z,2.60
2022-11-01T23:12:55.889Z,2.13
2022-11-01T23:15:40.808Z,2.10
2022-11-01T23:18:24.652Z,1.90
2022-11-01T23:21:07.581Z,1.90
2022-11-01T23:23:42.146Z,1.60
2022-11-01T23:26:11.004Z,1.80
2022-11-01T23:28:50.094Z,1.70
2022-11-01T23:31:18.474Z,1.30
2022-11-01T23:33:47.264Z,1.90
2022-11-01T23:36:26.354Z,1.83
2022-11-01T23:38:56.302Z,2.53
2022-11-01T23:41:27.804Z,2.43
2022-11-01T23:43:58.556Z,2.37
2022-11-01T23:46:26.809Z,2.90
2022-11-01T23:49:19.431Z,2.57
2022-11-01T23:51:46.311Z,2.60
2022-11-01T23:54:22.678Z,2.40
2022-11-01T23:56:49.441Z,2.27
2022-11-01T23:59:16.601Z,2.53
